createdAt,value
2018-08-22T00:00:58.954Z,12.90
2018-08-22T00:03:27.737Z,12.90
2018-08-22T00:05:56.523Z,13.00
2018-08-22T00:08:30.482Z,13.00
2018-08-22T00:10:59.307Z,13.00
2018-08-22T00:13:28.074Z,13.10
2018-08-22T00:15:56.856Z,13.20
2018-08-22T00:18:25.663Z,13.20
2018-08-22T00:20:54.450Z,13.30
2018-08-22T00:23:23.234Z,13.30
2018-08-22T00:25:51.991Z,13.30
2018-08-22T00:28:20.771Z,13.20
2018-08-22T00:30:49.585Z,13.20
2018-08-22T00:33:18.346Z,13.20
2018-08-22T00:35:47.467Z,13.20
2018-08-22T00:38:16.275Z,13.20
2018-08-22T00:40:45.143Z,13.20
2018-08-22T00:43:13.918Z,13.10
2018-08-22T00:45:42.725Z,13.10
2018-08-22T00:48:11.478Z,13.10
2018-08-22T00:50:40.250Z,13.10
2018-08-22T00:53:09.011Z,13.20
2018-08-22T00:55:37.763Z,13.10
2018-08-22T00:58:06.546Z,13.10
2018-08-22T01:00:35.314Z,13.10
2018-08-22T01:03:04.125Z,13.10
2018-08-22T01:05:32.889Z,13.10
2018-08-22T01:08:01.804Z,13.10
2018-08-22T01:10:30.575Z,13.10
2018-08-22T01:12:59.330Z,13.10
2018-08-22T01:15:28.102Z,13.10
2018-08-22T01:17:56.886Z,13.00
2018-08-22T01:20:25.662Z,13.00
2018-08-22T01:22:54.430Z,13.00
2018-08-22T01:25:23.196Z,13.00
2018-08-22T01:27:51.948Z,12.90
2018-08-22T01:30:20.730Z,12.80
2018-08-22T01:32:49.508Z,12.80
2018-08-22T01:35:18.266Z,12.70
2018-08-22T01:37:47.069Z,12.70
2018-08-22T01:40:15.834Z,12.60
2018-08-22T01:42:44.590Z,12.50
2018-08-22T01:45:13.358Z,12.50
2018-08-22T01:47:42.112Z,12.50
2018-08-22T01:50:10.878Z,12.50
2018-08-22T01:52:39.662Z,12.40
2018-08-22T01:55:08.430Z,12.40
2018-08-22T01:57:37.190Z,12.40
2018-08-22T02:00:06.678Z,10.20
2018-08-22T02:02:35.486Z,12.40
2018-08-22T02:05:04.401Z,12.30
2018-08-22T02:07:33.204Z,12.30
2018-08-22T02:10:01.970Z,12.30
2018-08-22T02:12:30.739Z,12.30
2018-08-22T02:14:59.548Z,12.30
2018-08-22T02:17:28.378Z,12.30
2018-08-22T02:19:57.158Z,12.30
2018-08-22T02:22:25.957Z,12.30
2018-08-22T02:24:54.734Z,12.30
2018-08-22T02:27:23.498Z,12.30
2018-08-22T02:29:52.302Z,12.30
2018-08-22T02:32:21.058Z,12.30
2018-08-22T02:34:49.841Z,12.30
2018-08-22T02:37:19.738Z,12.30
2018-08-22T02:39:48.569Z,12.40
2018-08-22T02:42:17.361Z,12.40
2018-08-22T02:44:46.130Z,12.50
2018-08-22T02:47:14.915Z,12.50
2018-08-22T02:49:43.670Z,12.40
2018-08-22T02:52:12.438Z,12.40
2018-08-22T02:54:41.202Z,12.40
2018-08-22T02:57:09.958Z,12.40
2018-08-22T02:59:38.778Z,12.40
2018-08-22T03:02:07.558Z,12.40
2018-08-22T03:04:36.346Z,12.40
2018-08-22T03:07:05.142Z,12.40
2018-08-22T03:09:33.890Z,12.40
2018-08-22T03:12:02.662Z,12.30
2018-08-22T03:14:31.464Z,12.40
2018-08-22T03:17:00.234Z,12.30
2018-08-22T03:19:28.990Z,12.40
2018-08-22T03:21:57.867Z,12.40
2018-08-22T03:24:26.612Z,12.50
2018-08-22T03:26:55.626Z,12.50
2018-08-22T03:29:24.432Z,12.50
2018-08-22T03:31:53.195Z,12.50
2018-08-22T03:34:21.980Z,12.60
2018-08-22T03:36:50.870Z,12.60
2018-08-22T03:39:19.650Z,12.60
2018-08-22T03:41:48.412Z,12.70
2018-08-22T03:44:17.146Z,12.80
2018-08-22T03:46:45.938Z,13.00
2018-08-22T03:49:14.700Z,13.00
2018-08-22T03:51:43.466Z,13.10
2018-08-22T03:54:12.291Z,13.20
2018-08-22T03:56:41.090Z,13.20
2018-08-22T03:59:10.065Z,13.30
2018-08-22T04:01:38.862Z,13.40
2018-08-22T04:04:07.642Z,13.40
2018-08-22T04:06:36.430Z,13.50
2018-08-22T04:09:07.110Z,13.60
2018-08-22T04:11:35.916Z,13.70
2018-08-22T04:14:04.715Z,13.80
2018-08-22T04:16:33.486Z,13.80
2018-08-22T04:19:02.254Z,13.80
2018-08-22T04:21:31.021Z,13.90
2018-08-22T04:23:59.769Z,13.90
2018-08-22T04:26:28.527Z,13.80
2018-08-22T04:28:57.306Z,13.90
2018-08-22T04:31:26.066Z,14.00
2018-08-22T04:33:54.858Z,14.10
2018-08-22T04:36:23.628Z,14.10
2018-08-22T04:38:52.405Z,14.20
2018-08-22T04:41:21.177Z,14.20
2018-08-22T04:43:49.970Z,14.20
2018-08-22T04:46:18.770Z,14.20
2018-08-22T04:48:47.554Z,14.20
2018-08-22T04:51:16.333Z,14.30
2018-08-22T04:53:45.109Z,14.30
2018-08-22T04:56:14.020Z,14.40
2018-08-22T04:58:42.806Z,14.50
2018-08-22T05:01:11.567Z,14.60
2018-08-22T05:03:40.375Z,14.70
2018-08-22T05:06:09.155Z,14.80
2018-08-22T05:08:37.919Z,15.00
2018-08-22T05:11:06.683Z,15.10
2018-08-22T05:13:35.858Z,15.20
2018-08-22T05:16:04.661Z,15.30
2018-08-22T05:18:33.418Z,15.30
2018-08-22T05:21:02.194Z,15.40
2018-08-22T05:23:31.006Z,15.40
2018-08-22T05:25:59.772Z,15.50
2018-08-22T05:28:28.538Z,15.70
2018-08-22T05:30:57.318Z,15.80
2018-08-22T05:33:26.094Z,15.90
2018-08-22T05:35:54.856Z,16.00
2018-08-22T05:38:23.633Z,16.10
2018-08-22T05:40:52.411Z,16.30
2018-08-22T05:43:21.190Z,16.30
2018-08-22T05:45:49.954Z,16.40
2018-08-22T05:48:18.820Z,16.50
2018-08-22T05:50:47.602Z,16.50
2018-08-22T05:53:16.376Z,16.60
2018-08-22T05:55:45.192Z,16.70
2018-08-22T05:58:13.978Z,16.90
2018-08-22T06:00:42.803Z,17.00
2018-08-22T06:03:11.583Z,17.10
2018-08-22T06:05:40.351Z,17.20
2018-08-22T06:08:09.135Z,17.40
2018-08-22T06:10:37.922Z,17.40
2018-08-22T06:13:07.094Z,17.60
2018-08-22T06:15:35.884Z,17.70
2018-08-22T06:18:04.686Z,17.80
2018-08-22T06:20:33.490Z,17.80
2018-08-22T06:23:02.278Z,17.80
2018-08-22T06:25:31.072Z,17.80
2018-08-22T06:27:59.954Z,17.90
2018-08-22T06:30:28.735Z,17.90
2018-08-22T06:32:57.540Z,18.00
2018-08-22T06:35:26.316Z,18.10
2018-08-22T06:37:55.102Z,18.20
2018-08-22T06:40:23.870Z,18.20
2018-08-22T06:42:52.654Z,18.20
2018-08-22T06:45:21.410Z,18.30
2018-08-22T06:47:50.171Z,18.30
2018-08-22T06:50:19.004Z,18.40
2018-08-22T06:52:47.742Z,18.60
2018-08-22T06:55:16.598Z,18.90
2018-08-22T06:57:45.494Z,19.20
2018-08-22T07:00:14.314Z,19.20
2018-08-22T07:02:43.090Z,19.30
2018-08-22T07:05:12.098Z,19.00
2018-08-22T07:07:40.854Z,19.10
2018-08-22T07:10:09.627Z,19.00
2018-08-22T07:12:38.394Z,18.80
2018-08-22T07:15:07.802Z,18.90
2018-08-22T07:17:36.640Z,18.60
2018-08-22T07:20:06.182Z,18.40
2018-08-22T07:22:34.954Z,18.30
2018-08-22T07:25:04.066Z,18.40
2018-08-22T07:27:32.833Z,18.60
2018-08-22T07:30:01.640Z,18.80
2018-08-22T07:32:30.390Z,18.80
2018-08-22T07:34:59.163Z,18.70
2018-08-22T07:37:27.930Z,18.60
2018-08-22T07:39:56.659Z,18.60
2018-08-22T07:42:25.434Z,18.80
2018-08-22T07:44:54.213Z,18.90
2018-08-22T07:47:22.982Z,18.80
2018-08-22T07:49:51.738Z,18.50
2018-08-22T07:52:20.509Z,18.40
2018-08-22T07:54:49.375Z,18.30
2018-08-22T07:57:21.330Z,18.30
2018-08-22T07:59:50.764Z,18.30
2018-08-22T08:02:19.558Z,18.40
2018-08-22T08:04:48.397Z,18.60
2018-08-22T08:07:17.674Z,18.60
2018-08-22T08:09:46.444Z,18.70
2018-08-22T08:12:15.210Z,18.80
2018-08-22T08:14:45.997Z,18.80
2018-08-22T08:17:14.882Z,18.90
2018-08-22T08:19:43.590Z,18.90
2018-08-22T08:22:12.342Z,19.10
2018-08-22T08:24:41.121Z,19.40
2018-08-22T08:27:09.898Z,19.30
2018-08-22T08:29:38.663Z,19.50
2018-08-22T08:32:07.754Z,19.30
2018-08-22T08:34:36.538Z,19.10
2018-08-22T08:37:05.343Z,18.90
2018-08-22T08:39:34.100Z,19.00
2018-08-22T08:42:02.886Z,19.00
2018-08-22T08:44:31.634Z,19.00
2018-08-22T08:47:00.386Z,19.00
2018-08-22T08:49:29.181Z,19.00
2018-08-22T08:52:00.440Z,18.90
2018-08-22T08:54:29.786Z,18.80
2018-08-22T08:56:58.986Z,18.90
2018-08-22T08:59:27.743Z,19.10
2018-08-22T09:01:56.502Z,19.00
2018-08-22T09:04:25.337Z,19.10
2018-08-22T09:06:54.132Z,19.30
2018-08-22T09:09:22.918Z,19.10
2018-08-22T09:11:56.494Z,18.90
2018-08-22T09:14:25.287Z,19.30
2018-08-22T09:16:54.297Z,19.20
2018-08-22T09:19:23.115Z,19.20
2018-08-22T09:21:51.928Z,19.70
2018-08-22T09:24:20.742Z,19.90
2018-08-22T09:26:49.552Z,20.50
2018-08-22T09:29:18.319Z,20.30
2018-08-22T09:31:47.124Z,19.80
2018-08-22T09:34:15.914Z,19.40
2018-08-22T09:36:44.672Z,19.50
2018-08-22T09:39:14.313Z,19.90
2018-08-22T09:41:43.392Z,19.90
2018-08-22T09:44:12.151Z,19.50
2018-08-22T09:46:41.408Z,19.40
2018-08-22T09:49:10.480Z,19.10
2018-08-22T09:51:39.246Z,19.10
2018-08-22T09:54:08.019Z,19.20
2018-08-22T09:56:36.798Z,19.20
2018-08-22T09:59:05.626Z,19.10
2018-08-22T10:01:39.579Z,18.90
2018-08-22T10:04:08.370Z,18.80
2018-08-22T10:06:40.523Z,19.30
2018-08-22T10:09:21.054Z,19.20
2018-08-22T10:11:49.830Z,19.20
2018-08-22T10:14:18.668Z,19.20
2018-08-22T10:16:47.450Z,19.10
2018-08-22T10:19:16.227Z,19.00
2018-08-22T10:21:45.011Z,19.00
2018-08-22T10:24:13.746Z,19.00
2018-08-22T10:26:42.538Z,19.10
2018-08-22T10:29:11.318Z,19.50
2018-08-22T10:31:40.090Z,19.50
2018-08-22T10:34:08.865Z,20.10
2018-08-22T10:36:37.634Z,20.70
2018-08-22T10:39:08.347Z,20.80
2018-08-22T10:41:37.366Z,21.30
2018-08-22T10:44:06.470Z,21.50
2018-08-22T10:46:35.242Z,20.90
2018-08-22T10:49:04.020Z,20.00
2018-08-22T10:51:32.782Z,20.10
2018-08-22T10:54:01.571Z,20.60
2018-08-22T10:56:30.476Z,21.20
2018-08-22T10:58:59.352Z,21.30
2018-08-22T11:01:28.162Z,21.30
2018-08-22T11:03:56.962Z,21.60
2018-08-22T11:06:25.930Z,21.30
2018-08-22T11:08:55.012Z,20.90
2018-08-22T11:11:23.910Z,20.60
2018-08-22T11:13:52.958Z,21.20
2018-08-22T11:16:21.831Z,21.70
2018-08-22T11:18:50.801Z,21.30
2018-08-22T11:21:30.542Z,20.80
2018-08-22T11:24:10.538Z,21.00
2018-08-22T11:26:50.342Z,22.00
2018-08-22T11:29:30.273Z,22.70
2018-08-22T11:32:09.984Z,23.30
2018-08-22T11:34:44.490Z,22.70
2018-08-22T11:37:14.505Z,22.00
2018-08-22T11:39:44.483Z,22.40
2018-08-22T11:42:13.312Z,23.60
2018-08-22T11:44:42.143Z,23.20
2018-08-22T11:47:10.934Z,22.90
2018-08-22T11:49:39.694Z,22.90
2018-08-22T11:52:08.467Z,22.50
2018-08-22T11:54:37.265Z,22.10
2018-08-22T11:57:06.238Z,22.30
2018-08-22T11:59:35.023Z,23.50
2018-08-22T12:02:04.659Z,23.90
2018-08-22T12:04:33.453Z,23.50
2018-08-22T12:07:02.262Z,23.40
2018-08-22T12:09:31.029Z,23.60
2018-08-22T12:11:59.801Z,23.80
2018-08-22T12:14:28.566Z,23.30
2018-08-22T12:16:57.402Z,23.60
2018-08-22T12:19:26.193Z,22.90
2018-08-22T12:21:54.960Z,23.20
2018-08-22T12:24:23.719Z,24.00
2018-08-22T12:26:52.490Z,24.30
2018-08-22T12:29:21.270Z,24.60
2018-08-22T12:31:50.062Z,24.20
2018-08-22T12:34:18.834Z,24.10
2018-08-22T12:36:47.602Z,23.50
2018-08-22T12:39:16.402Z,23.10
2018-08-22T12:41:45.174Z,23.40
2018-08-22T12:44:13.953Z,23.20
2018-08-22T12:46:42.731Z,23.50
2018-08-22T12:49:11.519Z,23.90
2018-08-22T12:51:40.234Z,23.70
2018-08-22T12:54:09.058Z,24.30
2018-08-22T12:56:37.858Z,24.10
2018-08-22T12:59:06.619Z,24.50
2018-08-22T13:01:35.383Z,23.50
2018-08-22T13:04:04.194Z,23.30
2018-08-22T13:06:32.995Z,23.30
2018-08-22T13:09:01.759Z,23.50
2018-08-22T13:11:30.591Z,23.70
2018-08-22T13:13:59.448Z,23.40
2018-08-22T13:16:28.250Z,23.60
2018-08-22T13:18:57.030Z,23.40
2018-08-22T13:21:25.782Z,24.00
2018-08-22T13:23:54.554Z,23.80
2018-08-22T13:26:23.328Z,23.50
2018-08-22T13:28:52.081Z,22.90
2018-08-22T13:31:20.849Z,22.90
2018-08-22T13:33:49.606Z,22.80
2018-08-22T13:36:18.452Z,23.10
2018-08-22T13:38:47.211Z,23.20
2018-08-22T13:41:16.002Z,24.30
2018-08-22T13:43:44.773Z,23.90
2018-08-22T13:46:13.538Z,23.70
2018-08-22T13:48:42.345Z,23.40
2018-08-22T13:51:11.102Z,24.40
2018-08-22T13:53:39.950Z,24.70
2018-08-22T13:56:08.797Z,23.50
2018-08-22T13:58:37.518Z,22.80
2018-08-22T14:01:06.315Z,23.00
2018-08-22T14:03:35.083Z,23.20
2018-08-22T14:06:03.882Z,23.30
2018-08-22T14:08:32.644Z,23.00
2018-08-22T14:11:01.435Z,23.60
2018-08-22T14:13:30.263Z,23.60
2018-08-22T14:15:59.096Z,23.30
2018-08-22T14:18:27.927Z,23.60
2018-08-22T14:20:56.674Z,23.80
2018-08-22T14:23:25.437Z,23.60
2018-08-22T14:25:54.199Z,23.60
2018-08-22T14:28:22.958Z,23.70
2018-08-22T14:30:51.754Z,23.50
2018-08-22T14:33:20.538Z,23.00
2018-08-22T14:35:49.329Z,23.00
2018-08-22T14:38:18.160Z,23.30
2018-08-22T14:40:46.986Z,23.80
2018-08-22T14:43:15.773Z,23.30
2018-08-22T14:45:44.578Z,23.20
2018-08-22T14:48:13.374Z,23.40
2018-08-22T14:50:42.404Z,23.20
2018-08-22T14:53:11.202Z,22.70
2018-08-22T14:55:39.999Z,23.40
2018-08-22T14:58:08.790Z,24.20
2018-08-22T15:00:37.573Z,22.80
2018-08-22T15:03:07.215Z,22.70
2018-08-22T15:05:35.702Z,22.90
2018-08-22T15:08:04.524Z,22.50
2018-08-22T15:10:33.354Z,22.30
2018-08-22T15:13:02.196Z,22.30
2018-08-22T15:15:30.994Z,22.60
2018-08-22T15:17:59.764Z,22.80
2018-08-22T15:20:28.583Z,22.60
2018-08-22T15:22:57.371Z,22.20
2018-08-22T15:25:26.230Z,21.90
2018-08-22T15:27:55.039Z,22.30
2018-08-22T15:30:23.806Z,22.50
2018-08-22T15:32:52.606Z,21.90
2018-08-22T15:35:21.486Z,22.20
2018-08-22T15:37:50.250Z,22.10
2018-08-22T15:40:19.031Z,21.80
2018-08-22T15:42:47.830Z,21.70
2018-08-22T15:45:16.606Z,22.00
2018-08-22T15:47:46.371Z,21.80
2018-08-22T15:50:15.098Z,21.60
2018-08-22T15:52:43.876Z,21.70
2018-08-22T15:55:19.242Z,21.30
2018-08-22T15:57:56.614Z,21.40
2018-08-22T16:00:37.325Z,21.40
2018-08-22T16:03:07.360Z,21.50
2018-08-22T16:05:36.958Z,21.30
2018-08-22T16:08:06.170Z,21.30
2018-08-22T16:10:34.930Z,21.00
2018-08-22T16:13:03.732Z,21.30
2018-08-22T16:15:34.555Z,21.30
2018-08-22T16:18:09.179Z,21.20
2018-08-22T16:20:45.614Z,23.60
2018-08-22T16:23:14.391Z,20.90
2018-08-22T16:25:44.383Z,20.90
2018-08-22T16:28:13.166Z,20.90
2018-08-22T16:30:42.057Z,21.30
2018-08-22T16:33:11.228Z,21.70
2018-08-22T16:35:40.006Z,21.10
2018-08-22T16:38:10.575Z,20.70
2018-08-22T16:40:41.583Z,20.50
2018-08-22T16:43:10.370Z,20.50
2018-08-22T16:45:45.219Z,20.80
2018-08-22T16:48:18.082Z,21.00
2018-08-22T16:50:46.930Z,20.70
2018-08-22T16:53:15.698Z,20.60
2018-08-22T16:55:45.232Z,20.50
2018-08-22T16:58:14.040Z,20.50
2018-08-22T17:00:44.166Z,20.30
2018-08-22T17:03:12.941Z,20.20
2018-08-22T17:05:41.806Z,19.90
2018-08-22T17:08:10.592Z,19.80
2018-08-22T17:10:54.150Z,19.80
2018-08-22T17:13:29.238Z,19.60
2018-08-22T17:15:59.180Z,19.20
2018-08-22T17:18:28.046Z,19.20
2018-08-22T17:20:56.985Z,19.10
2018-08-22T17:23:25.763Z,18.80
2018-08-22T17:25:54.625Z,18.50
2018-08-22T17:28:28.469Z,18.30
2018-08-22T17:30:57.519Z,18.20
2018-08-22T17:33:33.394Z,18.10
2018-08-22T17:36:02.163Z,18.00
2018-08-22T17:38:30.927Z,17.90
2018-08-22T17:40:59.677Z,17.80
2018-08-22T17:43:28.439Z,17.70
2018-08-22T17:45:57.224Z,17.70
2018-08-22T17:48:25.998Z,17.60
2018-08-22T17:50:54.772Z,17.50
2018-08-22T17:53:23.538Z,17.50
2018-08-22T17:55:52.355Z,17.40
2018-08-22T17:58:21.124Z,17.40
2018-08-22T18:00:49.904Z,17.40
2018-08-22T18:03:18.666Z,17.30
2018-08-22T18:05:47.451Z,17.30
2018-08-22T18:08:16.230Z,17.20
2018-08-22T18:10:44.994Z,17.20
2018-08-22T18:13:15.556Z,17.20
2018-08-22T18:15:44.854Z,17.20
2018-08-22T18:18:13.648Z,17.20
2018-08-22T18:20:46.702Z,17.10
2018-08-22T18:23:15.989Z,17.10
2018-08-22T18:25:49.962Z,17.00
2018-08-22T18:28:18.872Z,17.00
2018-08-22T18:30:47.667Z,17.00
2018-08-22T18:33:16.442Z,17.00
2018-08-22T18:35:46.415Z,17.00
2018-08-22T18:38:15.395Z,17.00
2018-08-22T18:40:52.022Z,16.90
2018-08-22T18:43:20.823Z,16.90
2018-08-22T18:45:59.859Z,16.90
2018-08-22T18:48:29.158Z,16.80
2018-08-22T18:50:57.934Z,16.90
2018-08-22T18:53:26.739Z,16.80
2018-08-22T18:56:06.615Z,16.80
2018-08-22T18:58:35.407Z,16.80
2018-08-22T19:01:05.091Z,16.80
2018-08-22T19:03:33.926Z,16.80
2018-08-22T19:06:02.739Z,16.80
2018-08-22T19:08:31.682Z,16.70
2018-08-22T19:11:00.457Z,16.70
2018-08-22T19:13:29.227Z,16.70
2018-08-22T19:16:00.232Z,16.70
2018-08-22T19:18:29.119Z,16.70
2018-08-22T19:20:59.705Z,16.70
2018-08-22T19:23:28.809Z,16.70
2018-08-22T19:25:58.299Z,16.70
2018-08-22T19:28:27.091Z,16.70
2018-08-22T19:30:55.912Z,16.60
2018-08-22T19:33:26.627Z,16.70
2018-08-22T19:35:55.655Z,16.70
2018-08-22T19:38:26.740Z,16.70
2018-08-22T19:40:55.947Z,16.70
2018-08-22T19:43:24.780Z,16.70
2018-08-22T19:45:53.600Z,16.70
2018-08-22T19:48:24.208Z,16.70
2018-08-22T19:50:52.989Z,16.80
2018-08-22T19:53:21.787Z,16.80
2018-08-22T19:55:50.563Z,16.70
2018-08-22T19:58:28.434Z,16.70
2018-08-22T20:00:58.050Z,16.70
2018-08-22T20:03:30.985Z,16.80
2018-08-22T20:05:59.794Z,16.80
2018-08-22T20:08:35.674Z,16.80
2018-08-22T20:11:04.634Z,16.80
2018-08-22T20:13:46.426Z,16.80
2018-08-22T20:16:15.737Z,16.80
2018-08-22T20:18:45.615Z,16.90
2018-08-22T20:21:21.495Z,16.80
2018-08-22T20:23:52.150Z,16.80
2018-08-22T20:26:21.110Z,16.80
2018-08-22T20:28:54.931Z,16.80
2018-08-22T20:31:23.737Z,16.70
2018-08-22T20:34:01.611Z,16.70
2018-08-22T20:36:31.029Z,16.80
2018-08-22T20:39:06.758Z,16.80
2018-08-22T20:41:35.899Z,16.80
2018-08-22T20:44:08.098Z,16.80
2018-08-22T20:46:36.882Z,16.90
2018-08-22T20:49:05.734Z,16.90
2018-08-22T20:51:34.710Z,16.80
2018-08-22T20:54:08.758Z,16.80
2018-08-22T20:56:40.894Z,16.80
2018-08-22T20:59:09.847Z,16.80
2018-08-22T21:01:38.737Z,16.80
2018-08-22T21:04:07.562Z,16.80
2018-08-22T21:06:36.342Z,16.80
2018-08-22T21:09:06.490Z,16.80
2018-08-22T21:11:36.081Z,16.70
2018-08-22T21:14:04.866Z,16.80
2018-08-22T21:16:33.634Z,16.80
2018-08-22T21:19:02.446Z,16.80
2018-08-22T21:21:31.288Z,16.80
2018-08-22T21:24:00.062Z,16.80
2018-08-22T21:26:36.677Z,16.80
2018-08-22T21:29:05.634Z,16.80
2018-08-22T21:31:35.060Z,16.80
2018-08-22T21:34:35.646Z,16.80
2018-08-22T21:37:14.198Z,16.80
2018-08-22T21:39:43.020Z,16.80
2018-08-22T21:42:11.898Z,16.80
2018-08-22T21:44:40.718Z,16.80
2018-08-22T21:47:09.493Z,16.80
2018-08-22T21:49:38.290Z,16.80
2018-08-22T21:52:07.088Z,16.90
2018-08-22T21:54:35.885Z,16.80
2018-08-22T21:57:04.682Z,16.80
2018-08-22T21:59:33.440Z,16.80
2018-08-22T22:02:08.207Z,16.90
2018-08-22T22:04:41.138Z,16.80
2018-08-22T22:07:11.558Z,16.80
2018-08-22T22:09:40.725Z,16.80
2018-08-22T22:12:14.802Z,16.90
2018-08-22T22:14:45.454Z,16.90
2018-08-22T22:17:14.208Z,16.90
2018-08-22T22:19:42.967Z,16.90
2018-08-22T22:22:11.766Z,16.90
2018-08-22T22:24:46.114Z,16.90
2018-08-22T22:27:14.894Z,16.90
2018-08-22T22:29:43.651Z,16.80
2018-08-22T22:32:12.472Z,16.80
2018-08-22T22:34:41.566Z,16.80
2018-08-22T22:37:10.325Z,16.80
2018-08-22T22:39:43.926Z,16.80
2018-08-22T22:42:18.092Z,16.80
2018-08-22T22:44:49.890Z,16.80
2018-08-22T22:47:23.970Z,16.80
2018-08-22T22:49:52.818Z,16.80
2018-08-22T22:52:31.460Z,16.90
2018-08-22T22:55:01.499Z,16.80
2018-08-22T22:57:32.410Z,16.80
2018-08-22T23:00:02.039Z,16.80
2018-08-22T23:02:31.394Z,16.80
2018-08-22T23:05:00.727Z,16.90
2018-08-22T23:07:30.989Z,16.80
2018-08-22T23:10:03.934Z,16.90
2018-08-22T23:12:47.026Z,16.80
2018-08-22T23:15:23.034Z,16.80
2018-08-22T23:17:53.746Z,16.80
2018-08-22T23:20:36.072Z,16.80
2018-08-22T23:23:10.007Z,16.80
2018-08-22T23:25:38.774Z,16.80
2018-08-22T23:28:07.528Z,16.80
2018-08-22T23:30:37.150Z,16.80
2018-08-22T23:33:06.954Z,16.80
2018-08-22T23:35:36.718Z,16.80
2018-08-22T23:38:07.667Z,16.80
2018-08-22T23:40:36.867Z,16.80
2018-08-22T23:43:05.630Z,16.70
2018-08-22T23:45:36.902Z,16.80
2018-08-22T23:48:06.555Z,16.90
2018-08-22T23:50:45.130Z,16.90
2018-08-22T23:53:13.933Z,17.00
2018-08-22T23:55:42.698Z,17.00
2018-08-22T23:58:11.482Z,16.90
